Time;durP1;ratioP1;P1;durP2;ratioP2;P2;SDS_P1;SDS_P2;PMS_P1;PMS_P2;Temp;Humidity;BMP_temperature;BMP_pressure;BME280_temperature;BME280_humidity;BME280_pressure;Samples;Min_cycle;Max_cycle;Signal;HPM_P1;HPM_P2
2022/04/21 00:02:18;;;;;;;6.32;3.33;;;9.30;71.50;;;;;;5047946;28;20041;-65
2022/04/21 00:04:43;;;;;;;6.47;3.65;;;9.30;71.50;;;;;;5048192;28;20099;-66
2022/04/21 00:07:09;;;;;;;6.38;3.85;;;9.30;71.40;;;;;;5047902;28;20049;-65
2022/04/21 00:09:34;;;;;;;6.47;3.45;;;9.20;71.70;;;;;;5047218;28;20120;-65
2022/04/21 00:12:00;;;;;;;6.18;4.00;;;9.20;71.80;;;;;;5047672;28;20059;-65
2022/04/21 00:14:26;;;;;;;10.45;4.50;;;9.20;72.00;;;;;;5048266;28;20107;-65
2022/04/21 00:16:51;;;;;;;9.10;3.50;;;9.20;71.70;;;;;;5048476;28;20060;-65
2022/04/21 00:19:17;;;;;;;9.77;3.85;;;9.20;71.80;;;;;;5047942;28;20051;-65
2022/04/21 00:24:27;;;;;;;8.85;4.45;;;9.10;71.80;;;;;;5042204;28;20076;-65
2022/04/21 00:26:52;;;;;;;7.47;3.97;;;9.20;71.90;;;;;;5047849;28;20083;-65
2022/04/21 00:29:18;;;;;;;11.82;5.13;;;9.20;72.10;;;;;;5048174;28;20051;-65
2022/04/21 00:31:43;;;;;;;8.30;4.70;;;9.20;71.90;;;;;;5047213;28;20040;-65
2022/04/21 00:34:10;;;;;;;9.57;5.25;;;9.20;72.10;;;;;;5047702;28;20412;-65
2022/04/21 00:36:35;;;;;;;12.32;5.03;;;9.20;72.30;;;;;;5046532;28;20223;-66
2022/04/21 00:39:01;;;;;;;8.40;5.32;;;9.20;72.10;;;;;;5047733;28;20033;-66
2022/04/21 00:41:26;;;;;;;8.57;5.32;;;9.20;72.30;;;;;;5046852;28;20071;-65
2022/04/21 00:43:52;;;;;;;10.52;5.20;;;9.20;72.10;;;;;;5047194;28;20041;-65
2022/04/21 00:46:19;;;;;;;10.70;6.30;;;9.20;72.10;;;;;;5047318;28;20522;-66
2022/04/21 00:48:46;;;;;;;8.48;5.32;;;9.30;72.10;;;;;;5048334;28;20143;-66
2022/04/21 00:51:12;;;;;;;11.45;5.75;;;9.20;72.10;;;;;;5047746;28;20148;-66
2022/04/21 00:53:38;;;;;;;10.88;6.70;;;9.30;72.30;;;;;;5047488;28;20049;-66
2022/04/21 00:56:05;;;;;;;7.68;5.43;;;9.30;72.30;;;;;;5045512;28;20055;-66
2022/04/21 00:58:31;;;;;;;8.63;5.22;;;9.20;72.40;;;;;;5047832;28;20036;-67
2022/04/21 01:00:57;;;;;;;10.38;5.88;;;9.20;72.40;;;;;;5046752;28;20045;-67
2022/04/21 01:03:23;;;;;;;7.75;6.00;;;9.20;72.50;;;;;;5047846;28;20043;-66
2022/04/21 01:05:49;;;;;;;11.70;5.43;;;9.20;72.60;;;;;;5047806;28;20048;-66
2022/04/21 01:08:17;;;;;;;9.80;6.60;;;9.20;72.60;;;;;;5047239;28;20041;-66
2022/04/21 01:10:43;;;;;;;11.40;5.65;;;9.20;72.90;;;;;;5046614;28;20040;-66
2022/04/21 01:13:11;;;;;;;9.15;6.35;;;9.20;72.90;;;;;;5047300;28;20065;-66
2022/04/21 01:15:37;;;;;;;11.43;5.95;;;9.20;73.00;;;;;;5047682;28;20417;-66
2022/04/21 01:18:05;;;;;;;10.00;7.07;;;9.20;72.90;;;;;;5049706;28;20047;-66
2022/04/21 01:20:31;;;;;;;9.32;5.90;;;9.20;73.00;;;;;;5050490;28;20128;-67
2022/04/21 01:22:56;;;;;;;13.02;7.43;;;9.30;73.00;;;;;;5050124;28;20085;-66
2022/04/21 01:25:22;;;;;;;12.13;7.10;;;9.20;73.00;;;;;;5050025;28;20174;-66
2022/04/21 01:27:56;;;;;;;13.10;6.43;;;9.30;73.00;;;;;;5051692;28;20036;-66
2022/04/21 01:30:21;;;;;;;10.85;6.80;;;9.30;73.00;;;;;;5051037;28;20052;-67
2022/04/21 01:32:49;;;;;;;13.52;6.78;;;9.30;73.10;;;;;;5051308;28;20472;-68
2022/04/21 01:35:15;;;;;;;9.30;6.57;;;9.20;73.10;;;;;;5050906;28;20036;-66
2022/04/21 01:43:10;;;;;;;8.82;6.32;;;9.20;73.10;;;;;;5049487;28;20049;-66
2022/04/21 01:45:36;;;;;;;9.13;6.78;;;9.10;73.30;;;;;;5048392;28;20049;-66
2022/04/21 01:48:03;;;;;;;11.38;7.28;;;9.10;73.30;;;;;;5050044;28;20257;-66
2022/04/21 01:50:30;;;;;;;12.90;6.88;;;9.10;73.40;;;;;;5049603;28;20052;-66
2022/04/21 01:52:58;;;;;;;10.48;7.43;;;9.10;73.50;;;;;;5049925;28;20405;-66
2022/04/21 01:55:23;;;;;;;11.90;7.38;;;9.10;73.60;;;;;;5048605;28;20037;-66
2022/04/21 01:57:49;;;;;;;12.93;8.13;;;9.10;73.70;;;;;;5049709;28;20033;-66
2022/04/21 02:00:16;;;;;;;12.00;7.65;;;9.10;73.60;;;;;;5049428;28;20033;-65
2022/04/21 02:02:42;;;;;;;14.68;8.38;;;9.10;73.60;;;;;;5049010;28;20056;-65
2022/04/21 02:05:08;;;;;;;11.32;7.07;;;9.10;73.60;;;;;;5030889;28;20045;-65
2022/04/21 02:07:34;;;;;;;11.45;7.35;;;9.10;73.60;;;;;;5049231;28;20045;-64
2022/04/21 02:09:59;;;;;;;12.98;7.95;;;9.10;73.70;;;;;;5048962;28;20098;-65
2022/04/21 02:12:27;;;;;;;11.50;8.18;;;9.00;73.70;;;;;;5049170;28;20718;-66
2022/04/21 02:14:53;;;;;;;13.25;7.88;;;9.00;73.80;;;;;;5047637;28;20049;-65
2022/04/21 02:17:19;;;;;;;13.43;9.00;;;9.00;73.80;;;;;;5049382;28;20032;-66
2022/04/21 02:19:45;;;;;;;15.27;9.32;;;8.90;74.00;;;;;;5049689;28;20135;-66
2022/04/21 02:22:12;;;;;;;14.27;9.20;;;8.90;74.20;;;;;;5048130;28;20079;-66
2022/04/21 02:24:37;;;;;;;14.85;9.40;;;8.90;74.20;;;;;;5049501;28;20063;-66
2022/04/21 02:27:03;;;;;;;16.05;8.80;;;8.90;74.30;;;;;;5048840;28;20037;-66
2022/04/21 02:29:29;;;;;;;16.70;10.07;;;8.90;74.60;;;;;;5049164;28;20048;-65
2022/04/21 02:31:54;;;;;;;13.88;9.95;;;8.80;74.70;;;;;;5049079;28;20048;-66
2022/04/21 02:34:20;;;;;;;17.27;10.52;;;8.70;74.70;;;;;;5048478;28;20032;-65
2022/04/21 02:36:45;;;;;;;12.95;9.07;;;8.80;74.70;;;;;;5048982;28;20067;-66
2022/04/21 02:39:11;;;;;;;13.13;9.88;;;8.80;74.80;;;;;;5049869;28;20047;-66
2022/04/21 02:41:37;;;;;;;14.20;9.38;;;8.70;74.80;;;;;;5049503;28;20049;-66
2022/04/21 02:44:02;;;;;;;15.80;10.82;;;8.60;75.00;;;;;;5049779;28;20612;-66
2022/04/21 02:46:30;;;;;;;16.38;10.93;;;8.60;75.20;;;;;;5049292;28;20049;-65
2022/04/21 02:48:57;;;;;;;15.23;9.75;;;8.60;75.30;;;;;;5049260;28;20029;-66
2022/04/21 02:51:23;;;;;;;17.23;11.50;;;8.60;75.50;;;;;;5050017;28;20037;-66
2022/04/21 02:59:17;;;;;;;19.05;11.65;;;8.60;75.80;;;;;;5044311;28;20053;-66
2022/04/21 03:01:43;;;;;;;18.27;11.60;;;8.60;75.90;;;;;;5049254;28;20448;-65
2022/04/21 03:04:09;;;;;;;15.48;10.75;;;8.50;76.00;;;;;;5049014;28;20052;-66
2022/04/21 03:06:34;;;;;;;18.60;13.13;;;8.50;76.20;;;;;;5049368;28;20460;-65
2022/04/21 03:09:00;;;;;;;19.92;10.98;;;8.60;76.30;;;;;;5049161;28;20045;-66
2022/04/21 03:11:25;;;;;;;14.95;10.93;;;8.60;76.20;;;;;;5047931;28;20402;-66
2022/04/21 03:13:51;;;;;;;16.73;11.57;;;8.60;76.30;;;;;;5049314;28;20132;-66
2022/04/21 03:16:16;;;;;;;16.67;10.32;;;8.60;76.30;;;;;;5049393;28;20633;-65
2022/04/21 03:18:42;;;;;;;17.38;11.82;;;8.60;76.40;;;;;;5049203;28;20049;-66
2022/04/21 03:26:36;;;;;;;19.33;11.35;;;8.70;76.60;;;;;;5048185;28;20049;-66
2022/04/21 03:29:02;;;;;;;17.17;11.95;;;8.60;76.50;;;;;;5048977;28;20064;-66
2022/04/21 03:31:27;;;;;;;19.00;11.35;;;8.70;76.50;;;;;;5049147;28;20049;-66
2022/04/21 03:33:54;;;;;;;20.52;11.63;;;8.60;76.70;;;;;;5048863;28;20033;-67
2022/04/21 03:36:20;;;;;;;17.10;11.68;;;8.60;76.80;;;;;;5048973;28;20468;-66
2022/04/21 03:38:46;;;;;;;19.23;11.50;;;8.60;76.90;;;;;;5048832;28;20611;-66
2022/04/21 03:41:12;;;;;;;17.58;11.27;;;8.60;76.90;;;;;;5047602;28;20135;-65
2022/04/21 03:43:37;;;;;;;18.27;11.52;;;8.60;76.80;;;;;;5049049;28;20425;-66
2022/04/21 03:46:03;;;;;;;21.48;12.77;;;8.60;76.80;;;;;;5048435;28;20453;-66
2022/04/21 03:48:29;;;;;;;14.88;11.68;;;8.60;76.90;;;;;;5049194;28;20052;-66
2022/04/21 03:50:55;;;;;;;16.73;11.30;;;8.60;76.80;;;;;;5048405;28;20049;-66
2022/04/21 03:53:21;;;;;;;15.80;10.73;;;8.60;76.60;;;;;;5048194;28;20041;-65
2022/04/21 03:55:47;;;;;;;14.57;10.50;;;8.50;76.60;;;;;;5048311;28;20048;-65
2022/04/21 03:58:12;;;;;;;14.73;10.77;;;8.60;76.60;;;;;;5048995;28;20128;-65
2022/04/21 04:00:38;;;;;;;15.07;10.52;;;8.60;76.60;;;;;;5048225;28;20025;-66
2022/04/21 04:03:04;;;;;;;13.63;11.00;;;8.60;76.40;;;;;;5048010;28;20611;-65
2022/04/21 04:05:30;;;;;;;14.45;10.55;;;8.50;76.40;;;;;;5048049;28;20528;-66
2022/04/21 04:10:52;;;;;;;16.95;11.80;;;8.50;76.40;;;;;;5048162;28;20077;-65
2022/04/21 04:13:24;;;;;;;17.58;10.27;;;8.50;76.50;;;;;;5044779;28;20048;-65
2022/04/21 04:15:51;;;;;;;15.55;10.90;;;8.50;76.50;;;;;;5047515;28;20715;-65
2022/04/21 04:18:19;;;;;;;16.88;11.30;;;8.50;76.50;;;;;;5048332;28;20080;-68
2022/04/21 04:20:46;;;;;;;19.60;11.77;;;8.60;76.50;;;;;;5047598;28;20498;-66
2022/04/21 04:23:17;;;;;;;18.17;12.25;;;8.60;76.50;;;;;;5047508;28;20119;-66
2022/04/21 04:25:42;;;;;;;17.17;11.40;;;8.60;76.30;;;;;;5047919;28;20363;-66
2022/04/21 04:28:08;;;;;;;17.60;11.60;;;8.60;76.40;;;;;;5048042;28;20124;-66
2022/04/21 04:30:34;;;;;;;18.65;12.02;;;8.60;76.50;;;;;;5046847;28;20033;-66
2022/04/21 04:32:59;;;;;;;18.42;10.50;;;8.60;76.50;;;;;;5048006;28;20413;-66
2022/04/21 04:35:26;;;;;;;16.38;11.38;;;8.60;76.60;;;;;;5047293;28;20049;-65
2022/04/21 04:37:52;;;;;;;20.00;12.02;;;8.60;76.50;;;;;;5045566;28;20043;-65
2022/04/21 04:40:19;;;;;;;14.40;9.90;;;8.60;76.50;;;;;;5047822;28;20413;-65
2022/04/21 04:42:44;;;;;;;15.85;11.18;;;8.60;76.60;;;;;;5042965;28;20135;-67
2022/04/21 04:47:55;;;;;;;14.43;10.55;;;9.10;81.30;;;;;;5048963;28;20379;-64
2022/04/21 04:50:20;;;;;;;12.18;9.93;;;9.60;80.40;;;;;;5048343;28;20045;-65
2022/04/21 04:52:49;;;;;;;14.80;9.02;;;10.10;77.70;;;;;;5048801;28;20037;-66
2022/04/21 04:55:15;;;;;;;15.63;9.50;;;10.40;75.60;;;;;;5049169;28;20091;-65
2022/04/21 04:57:40;;;;;;;19.05;10.57;;;10.30;74.10;;;;;;5046753;28;20037;-67
2022/04/21 05:00:08;;;;;;;16.92;10.60;;;10.00;73.40;;;;;;5061884;28;20045;-65
2022/04/21 05:02:34;;;;;;;14.50;10.15;;;9.70;73.40;;;;;;5044850;28;20498;-66
2022/04/21 05:05:00;;;;;;;15.23;10.02;;;9.60;73.60;;;;;;5051898;28;20106;-65
2022/04/21 05:07:26;;;;;;;16.10;9.82;;;9.50;73.80;;;;;;5051360;28;20581;-65
2022/04/21 05:09:52;;;;;;;17.67;12.25;;;9.30;74.00;;;;;;5049933;28;20090;-66
2022/04/21 05:12:18;;;;;;;13.15;9.45;;;9.30;74.20;;;;;;5050898;28;20061;-66
2022/04/21 05:14:44;;;;;;;11.80;9.35;;;9.20;74.30;;;;;;5051174;28;20544;-67
2022/04/21 05:17:10;;;;;;;14.70;9.48;;;9.10;74.40;;;;;;5050283;28;20076;-66
2022/04/21 05:19:36;;;;;;;17.33;9.73;;;9.10;74.50;;;;;;5051231;28;20086;-67
2022/04/21 05:22:03;;;;;;;12.73;9.68;;;9.10;74.50;;;;;;5049436;28;20072;-67
2022/04/21 05:24:33;;;;;;;13.50;8.70;;;9.10;74.50;;;;;;5050625;28;20055;-67
2022/04/21 05:27:00;;;;;;;13.65;8.68;;;9.10;74.60;;;;;;5050907;28;20051;-67
2022/04/21 05:32:11;;;;;;;12.35;8.57;;;8.90;74.50;;;;;;5050365;28;20118;-66
2022/04/21 05:34:37;;;;;;;14.57;9.20;;;8.90;74.50;;;;;;5050689;28;20123;-67
2022/04/21 05:37:03;;;;;;;15.13;9.50;;;8.90;74.50;;;;;;5050428;28;20565;-66
2022/04/21 05:39:30;;;;;;;12.93;8.90;;;8.90;74.50;;;;;;5051048;28;20063;-67
2022/04/21 05:41:57;;;;;;;13.18;9.15;;;8.90;74.70;;;;;;5051138;28;20045;-66
2022/04/21 05:44:24;;;;;;;16.42;9.48;;;8.90;74.60;;;;;;5051440;28;20083;-66
2022/04/21 05:46:50;;;;;;;19.52;11.15;;;8.90;74.90;;;;;;5049641;28;20033;-65
2022/04/21 05:49:17;;;;;;;17.58;11.07;;;8.90;74.80;;;;;;5050038;28;20454;-67
2022/04/21 05:51:44;;;;;;;13.88;9.73;;;9.10;75.00;;;;;;5048636;28;20076;-66
2022/04/21 05:54:09;;;;;;;15.10;8.35;;;9.10;75.20;;;;;;5050129;28;20056;-67
2022/04/21 05:56:35;;;;;;;14.43;7.97;;;9.10;75.40;;;;;;5050440;28;20041;-64
2022/04/21 05:59:01;;;;;;;11.65;8.35;;;9.20;75.30;;;;;;5049490;28;20118;-65
2022/04/21 06:01:27;;;;;;;12.00;7.72;;;9.20;75.30;;;;;;5050171;28;20087;-66
2022/04/21 06:03:53;;;;;;;10.30;7.82;;;9.30;75.20;;;;;;5049173;28;20076;-65
2022/04/21 06:06:19;;;;;;;14.80;8.07;;;9.30;75.30;;;;;;5050169;28;20488;-65
2022/04/21 06:08:45;;;;;;;9.18;6.68;;;9.30;75.10;;;;;;5050123;28;20047;-66
2022/04/21 06:11:14;;;;;;;12.38;6.50;;;9.40;75.10;;;;;;5050106;28;20131;-65
2022/04/21 06:13:43;;;;;;;10.57;6.63;;;9.40;74.90;;;;;;5049062;28;20084;-64
2022/04/21 06:16:10;;;;;;;8.43;5.90;;;9.50;74.80;;;;;;5047455;28;20055;-66
2022/04/21 06:18:36;;;;;;;6.78;3.67;;;9.50;74.70;;;;;;5045778;28;20069;-66
2022/04/21 06:21:03;;;;;;;11.90;6.90;;;9.70;76.40;;;;;;5047853;28;20056;-65
2022/04/21 06:23:30;;;;;;;9.35;6.50;;;10.00;75.10;;;;;;5050670;28;20051;-65
2022/04/21 06:25:59;;;;;;;11.85;7.75;;;10.00;74.30;;;;;;5048414;28;20574;-65
2022/04/21 06:28:25;;;;;;;10.32;5.70;;;10.10;74.00;;;;;;5050073;28;20037;-66
2022/04/21 06:30:51;;;;;;;10.90;7.30;;;10.10;73.80;;;;;;5049737;28;20072;-66
2022/04/21 06:33:17;;;;;;;12.07;7.90;;;10.10;73.70;;;;;;5050355;28;20124;-65
2022/04/21 06:35:44;;;;;;;14.63;7.13;;;10.20;73.60;;;;;;5050266;28;20501;-66
2022/04/21 06:38:10;;;;;;;12.15;6.07;;;10.20;73.50;;;;;;5049766;28;20773;-69
2022/04/21 06:40:36;;;;;;;9.73;6.28;;;10.20;73.40;;;;;;5049995;28;20045;-68
2022/04/21 06:48:01;;;;;;;9.65;6.45;;;10.30;73.10;;;;;;5049974;28;20041;-68
2022/04/21 06:48:32;;;;;;;10.60;5.85;;;10.40;72.70;;;;;;5049510;28;20045;-68
2022/04/21 06:50:58;;;;;;;8.35;5.55;;;10.50;72.40;;;;;;5049913;28;20048;-69
2022/04/21 06:53:23;;;;;;;9.15;5.68;;;10.60;72.40;;;;;;5049107;28;20041;-69
2022/04/21 06:55:49;;;;;;;6.28;4.95;;;10.60;72.20;;;;;;5048842;28;20522;-68
2022/04/21 06:58:15;;;;;;;11.82;5.50;;;10.60;72.00;;;;;;5048586;28;20052;-69
2022/04/21 07:00:41;;;;;;;7.53;5.75;;;10.70;71.70;;;;;;5047657;28;20571;-69
2022/04/21 07:03:08;;;;;;;8.48;5.13;;;10.80;71.40;;;;;;5048750;28;20120;-69
2022/04/21 07:05:33;;;;;;;8.93;5.38;;;10.90;71.00;;;;;;5048780;28;20045;-69
2022/04/21 07:07:59;;;;;;;10.95;5.20;;;11.00;70.70;;;;;;5049350;28;20036;-69
2022/04/21 07:10:25;;;;;;;9.38;5.32;;;11.00;70.60;;;;;;5048932;28;20449;-69
2022/04/21 07:12:51;;;;;;;8.27;5.15;;;11.10;70.30;;;;;;5048898;28;20044;-69
2022/04/21 07:15:17;;;;;;;9.23;5.38;;;11.10;70.10;;;;;;5048285;28;20461;-70
2022/04/21 07:17:43;;;;;;;9.50;5.70;;;11.20;70.10;;;;;;5048890;28;20049;-69
2022/04/21 07:20:10;;;;;;;8.77;5.28;;;11.20;69.70;;;;;;5048076;28;20128;-69
2022/04/21 07:22:37;;;;;;;9.32;5.03;;;11.20;69.50;;;;;;5048874;28;20549;-69
2022/04/21 07:25:05;;;;;;;6.70;5.00;;;11.30;69.30;;;;;;5048385;28;20047;-67
2022/04/21 07:27:31;;;;;;;11.70;5.82;;;11.30;69.10;;;;;;5046814;28;20317;-69
2022/04/21 07:29:57;;;;;;;8.93;5.05;;;11.40;68.90;;;;;;5045479;28;20029;-69
2022/04/21 07:32:23;;;;;;;9.55;5.05;;;11.40;68.50;;;;;;5049043;28;20047;-69
2022/04/21 07:34:48;;;;;;;10.23;5.25;;;11.50;68.40;;;;;;5046650;28;20406;-69
2022/04/21 07:37:14;;;;;;;7.43;4.85;;;11.60;68.30;;;;;;5045888;28;20114;-70
2022/04/21 07:39:43;;;;;;;6.05;3.97;;;11.60;68.00;;;;;;5047941;28;20524;-70
2022/04/21 07:42:09;;;;;;;7.75;4.57;;;11.70;67.80;;;;;;5048481;28;20104;-69
2022/04/21 07:44:36;;;;;;;7.88;4.40;;;11.80;67.00;;;;;;5047181;28;20045;-69
2022/04/21 07:47:06;;;;;;;7.68;4.25;;;11.80;66.70;;;;;;5043782;28;20572;-69
2022/04/21 07:49:44;;;;;;;8.77;4.28;;;11.90;66.70;;;;;;5047340;28;20041;-69
2022/04/21 07:54:55;;;;;;;9.77;4.18;;;12.00;66.30;;;;;;5047002;28;20124;-70
2022/04/21 07:57:20;;;;;;;9.57;4.40;;;12.10;66.10;;;;;;5046873;28;20179;-70
2022/04/21 07:59:47;;;;;;;5.43;3.70;;;12.10;66.00;;;;;;5047505;28;20470;-69
2022/04/21 08:02:15;;;;;;;5.47;3.22;;;12.20;65.50;;;;;;5046665;28;20513;-70
2022/04/21 08:04:44;;;;;;;7.57;3.72;;;12.20;64.70;;;;;;5047441;28;20044;-68
2022/04/21 08:07:10;;;;;;;4.57;2.80;;;12.40;65.00;;;;;;5028279;28;20134;-70
2022/04/21 08:09:36;;;;;;;4.20;2.85;;;12.50;64.00;;;;;;5047093;28;20103;-68
2022/04/21 08:12:02;;;;;;;4.25;2.55;;;12.60;63.70;;;;;;5048293;28;20053;-67
2022/04/21 08:14:28;;;;;;;6.40;2.50;;;12.60;63.20;;;;;;5048364;28;20060;-67
2022/04/21 08:16:54;;;;;;;4.05;2.80;;;12.70;62.60;;;;;;5048065;28;20364;-67
2022/04/21 08:19:20;;;;;;;7.03;3.67;;;12.80;62.50;;;;;;5048510;28;20404;-68
2022/04/21 08:21:47;;;;;;;7.38;3.28;;;12.90;62.60;;;;;;5056941;28;20056;-68
2022/04/21 08:32:33;;;;;;;4.25;2.45;;;13.00;61.90;;;;;;5052189;28;20049;-68
2022/04/21 08:35:03;;;;;;;4.28;2.70;;;13.10;61.80;;;;;;5052420;28;20127;-67
2022/04/21 08:37:33;;;;;;;3.58;2.33;;;13.20;61.60;;;;;;5051288;28;20045;-69
2022/04/21 08:40:00;;;;;;;3.55;2.03;;;13.30;61.20;;;;;;5051807;28;20040;-69
2022/04/21 08:42:29;;;;;;;5.35;2.50;;;13.40;60.40;;;;;;5051731;28;20124;-69
2022/04/21 08:44:57;;;;;;;3.90;2.20;;;13.40;60.40;;;;;;5051553;28;20037;-69
2022/04/21 08:47:27;;;;;;;6.97;2.92;;;13.50;59.80;;;;;;5051181;28;20045;-69
2022/04/21 08:49:59;;;;;;;4.07;2.38;;;13.50;59.40;;;;;;5050971;28;20072;-69
2022/04/21 08:52:25;;;;;;;;;;;13.60;58.80;;;;;;5051767;28;20151;-68
2022/04/21 08:54:51;;;;;;;8.18;3.33;;;13.60;58.30;;;;;;5051814;28;20019;-68
2022/04/21 08:57:17;;;;;;;4.53;2.42;;;13.60;59.10;;;;;;5050512;28;20509;-67
2022/04/21 08:59:42;;;;;;;4.97;2.65;;;13.60;58.10;;;;;;5051304;28;20041;-67
2022/04/21 09:02:08;;;;;;;6.82;2.55;;;13.60;58.50;;;;;;5051292;28;20437;-71
2022/04/21 09:04:34;;;;;;;6.80;2.30;;;13.80;58.70;;;;;;5050701;28;20044;-69
2022/04/21 09:07:21;;;;;;;3.95;1.92;;;13.90;58.70;;;;;;5050758;28;20045;-69
2022/04/21 09:10:14;;;;;;;6.43;2.35;;;14.00;57.60;;;;;;5049688;28;20039;-69
2022/04/21 09:12:43;;;;;;;3.67;2.70;;;14.10;57.40;;;;;;5048999;28;20056;-69
2022/04/21 09:15:12;;;;;;;3.83;2.45;;;14.10;56.40;;;;;;5051371;28;20049;-69
2022/04/21 09:17:44;;;;;;;4.65;2.63;;;14.10;55.40;;;;;;5052272;28;20143;-69
2022/04/21 09:20:10;;;;;;;5.40;2.65;;;14.10;55.90;;;;;;5050373;28;20734;-68
2022/04/21 09:22:40;;;;;;;6.97;3.10;;;14.10;56.20;;;;;;5051496;28;20456;-69
2022/04/21 09:25:06;;;;;;;4.15;2.45;;;14.20;56.10;;;;;;5050618;28;20045;-69
2022/04/21 09:27:45;;;;;;;4.15;2.55;;;14.20;55.90;;;;;;5050755;28;20041;-69
2022/04/21 09:30:15;;;;;;;3.40;2.38;;;14.30;55.20;;;;;;5049915;28;20131;-69
2022/04/21 09:32:50;;;;;;;7.50;2.55;;;14.30;55.10;;;;;;5049730;28;20253;-68
2022/04/21 09:35:17;;;;;;;4.43;1.77;;;14.30;55.40;;;;;;5052833;28;20079;-67
2022/04/21 09:37:53;;;;;;;4.00;2.25;;;14.50;55.60;;;;;;5047108;28;20040;-67
2022/04/21 09:40:22;;;;;;;4.15;2.35;;;14.60;55.70;;;;;;5041783;28;20063;-67
2022/04/21 09:42:57;;;;;;;2.95;2.03;;;14.60;55.70;;;;;;5040042;28;20044;-67
2022/04/21 09:48:26;;;;;;;4.10;2.20;;;14.90;55.00;;;;;;5044257;28;20057;-70
2022/04/21 09:50:56;;;;;;;3.13;2.17;;;15.00;55.30;;;;;;5050306;28;20557;-71
2022/04/21 09:53:23;;;;;;;3.70;1.88;;;15.00;54.10;;;;;;5044568;28;20471;-69
2022/04/21 09:55:51;;;;;;;4.03;2.15;;;15.10;54.80;;;;;;5043954;28;20441;-69
2022/04/21 09:58:17;;;;;;;5.90;2.63;;;15.10;54.50;;;;;;5051369;28;20048;-68
2022/04/21 10:00:43;;;;;;;6.70;2.10;;;15.20;53.70;;;;;;5052545;28;20041;-68
2022/04/21 10:03:10;;;;;;;4.70;2.70;;;15.20;53.70;;;;;;5034584;28;20056;-68
2022/04/21 10:05:39;;;;;;;3.22;2.33;;;15.20;53.70;;;;;;5053312;28;20124;-68
2022/04/21 10:08:07;;;;;;;3.53;1.75;;;15.20;53.30;;;;;;5049040;28;20045;-68
2022/04/21 10:10:34;;;;;;;9.90;2.50;;;15.30;53.40;;;;;;5047997;28;20037;-68
2022/04/21 10:13:01;;;;;;;5.40;2.75;;;15.30;53.60;;;;;;5050116;28;20049;-68
2022/04/21 10:15:28;;;;;;;7.25;2.70;;;15.40;53.70;;;;;;5048103;28;20592;-68
2022/04/21 10:17:54;;;;;;;4.57;2.60;;;15.50;54.10;;;;;;5035345;28;20091;-68
2022/04/21 10:20:24;;;;;;;6.22;2.65;;;15.60;53.80;;;;;;5049343;28;20391;-68
2022/04/21 10:22:54;;;;;;;5.05;2.53;;;15.60;53.30;;;;;;5048526;28;20040;-68
2022/04/21 10:25:32;;;;;;;4.82;2.50;;;15.60;52.80;;;;;;5055035;28;20044;-68
2022/04/21 10:27:58;;;;;;;5.90;2.80;;;15.60;53.20;;;;;;5036687;28;20052;-68
2022/04/21 10:30:29;;;;;;;4.78;2.33;;;15.60;52.80;;;;;;5051559;28;20049;-68
2022/04/21 10:32:56;;;;;;;7.50;2.47;;;15.60;53.50;;;;;;5034012;28;20513;-67
2022/04/21 10:35:24;;;;;;;4.75;2.55;;;15.60;52.60;;;;;;5047905;28;20444;-67
2022/04/21 10:38:19;;;;;;;3.30;1.77;;;15.60;51.90;;;;;;5049706;28;20115;-67
2022/04/21 10:41:10;;;;;;;4.43;2.40;;;15.60;50.70;;;;;;5051045;28;20057;-67
2022/04/21 10:43:48;;;;;;;4.13;2.33;;;15.60;51.60;;;;;;5049630;28;20044;-67
2022/04/21 10:46:32;;;;;;;5.90;2.53;;;15.60;52.70;;;;;;5044944;28;20045;-67
2022/04/21 10:48:59;;;;;;;3.53;2.08;;;15.60;51.90;;;;;;5048911;28;20028;-67
2022/04/21 10:57:15;;;;;;;8.13;2.03;;;15.70;51.30;;;;;;5048360;28;20048;-67
2022/04/21 11:00:03;;;;;;;3.72;2.10;;;15.70;51.70;;;;;;5048521;28;20649;-67
2022/04/21 11:02:42;;;;;;;5.35;2.13;;;15.80;52.20;;;;;;5048882;28;20610;-67
2022/04/21 11:05:38;;;;;;;7.22;2.55;;;15.80;51.60;;;;;;5048081;28;20064;-68
2022/04/21 11:08:12;;;;;;;5.20;1.90;;;15.90;51.50;;;;;;5047896;28;20556;-71
2022/04/21 11:10:37;;;;;;;3.75;1.90;;;15.90;50.90;;;;;;5043550;28;20573;-65
2022/04/21 11:13:04;;;;;;;7.38;3.33;;;16.00;51.00;;;;;;5048403;28;20493;-65
2022/04/21 11:15:32;;;;;;;3.88;1.63;;;16.00;51.00;;;;;;5048269;28;20052;-66
2022/04/21 11:18:11;;;;;;;8.00;2.00;;;16.00;50.80;;;;;;5048549;28;20103;-66
2022/04/21 11:20:44;;;;;;;5.68;2.55;;;16.10;51.40;;;;;;5047474;28;20116;-65
2022/04/21 11:23:26;;;;;;;6.78;2.70;;;16.30;51.50;;;;;;5047726;28;20067;-65
2022/04/21 11:25:52;;;;;;;5.28;2.25;;;16.40;51.60;;;;;;5045522;28;20037;-64
2022/04/21 11:28:25;;;;;;;5.53;2.65;;;16.50;51.40;;;;;;5047656;28;20037;-65
2022/04/21 11:30:58;;;;;;;5.07;2.67;;;16.60;51.00;;;;;;5047782;28;20044;-64
2022/04/21 11:33:24;;;;;;;5.60;2.20;;;16.60;51.30;;;;;;5047514;28;20037;-64
2022/04/21 11:35:59;;;;;;;3.83;2.33;;;16.70;51.40;;;;;;5046562;28;20632;-64
2022/04/21 11:38:27;;;;;;;6.90;2.25;;;16.80;50.60;;;;;;5047192;28;20080;-64
2022/04/21 11:40:53;;;;;;;5.00;2.75;;;16.70;49.50;;;;;;5046885;28;20040;-66
2022/04/21 11:43:18;;;;;;;11.07;2.63;;;16.60;49.60;;;;;;5040997;28;20485;-68
2022/04/21 11:45:59;;;;;;;3.83;1.92;;;16.60;49.40;;;;;;5042614;28;20075;-65
2022/04/21 11:48:38;;;;;;;5.88;2.50;;;16.70;49.50;;;;;;5042253;28;20052;-67
2022/04/21 11:51:04;;;;;;;4.75;2.53;;;16.80;49.60;;;;;;5039524;28;20052;-67
2022/04/21 11:53:36;;;;;;;10.95;4.22;;;16.80;48.90;;;;;;5043118;28;20386;-66
2022/04/21 11:56:03;;;;;;;5.13;1.92;;;16.70;49.40;;;;;;5041098;28;20504;-65
2022/04/21 11:58:30;;;;;;;7.82;3.15;;;16.80;50.00;;;;;;5043511;28;20058;-66
2022/04/21 12:06:38;;;;;;;3.15;2.05;;;16.80;48.60;;;;;;5043379;28;20490;-66
2022/04/21 12:09:05;;;;;;;2.65;1.80;;;16.70;49.00;;;;;;5042303;28;20057;-70
2022/04/21 12:11:33;;;;;;;6.88;2.25;;;16.80;47.80;;;;;;5043824;28;20437;-67
2022/04/21 12:13:59;;;;;;;5.38;1.98;;;16.70;48.20;;;;;;5046298;28;20049;-67
2022/04/21 12:16:42;;;;;;;2.72;1.65;;;16.80;48.20;;;;;;5045588;28;20049;-67
2022/04/21 12:19:28;;;;;;;3.35;1.80;;;17.00;47.80;;;;;;5040488;28;20083;-68
2022/04/21 12:22:06;;;;;;;3.20;2.00;;;17.00;46.90;;;;;;5043481;28;20103;-67
2022/04/21 12:24:35;;;;;;;3.45;2.05;;;17.00;47.80;;;;;;5044255;28;20065;-68
2022/04/21 12:27:03;;;;;;;4.07;2.20;;;17.10;47.70;;;;;;5045181;28;20037;-68
2022/04/21 12:29:31;;;;;;;6.18;2.70;;;17.20;48.90;;;;;;5036210;28;20060;-68
2022/04/21 12:32:05;;;;;;;6.13;2.45;;;17.40;48.60;;;;;;5045493;28;20493;-68
2022/04/21 12:34:38;;;;;;;5.65;2.15;;;17.40;48.10;;;;;;5045889;28;20044;-67
2022/04/21 12:37:06;;;;;;;3.97;2.22;;;17.30;48.20;;;;;;5046067;28;20091;-67
2022/04/21 12:39:31;;;;;;;4.20;2.53;;;17.20;47.90;;;;;;5041260;28;20049;-66
2022/04/21 12:41:58;;;;;;;6.15;2.80;;;17.10;48.50;;;;;;5042610;28;20409;-69
2022/04/21 12:44:25;;;;;;;5.13;2.63;;;17.10;48.80;;;;;;5045940;28;20041;-68
2022/04/21 12:47:11;;;;;;;6.05;2.58;;;17.00;48.90;;;;;;5045808;28;20041;-68
2022/04/21 12:50:03;;;;;;;6.07;2.88;;;17.10;49.00;;;;;;5044779;28;20033;-68
2022/04/21 12:52:38;;;;;;;6.47;3.28;;;17.00;49.00;;;;;;5046140;28;20404;-67
2022/04/21 12:55:10;;;;;;;7.18;2.97;;;16.90;48.20;;;;;;5046240;28;20556;-67
2022/04/21 12:57:37;;;;;;;6.95;2.40;;;16.80;48.80;;;;;;5044042;28;20086;-67
2022/04/21 13:00:06;;;;;;;5.35;2.78;;;16.70;48.40;;;;;;5045733;28;20045;-67
2022/04/21 13:02:32;;;;;;;7.03;3.58;;;16.80;48.40;;;;;;5046369;28;20156;-67
2022/04/21 13:04:57;;;;;;;5.88;2.67;;;16.80;48.90;;;;;;5045699;28;20112;-68
2022/04/21 13:07:24;;;;;;;8.05;3.78;;;16.80;49.80;;;;;;5045990;28;20045;-66
2022/04/21 13:09:50;;;;;;;3.97;2.83;;;16.80;49.70;;;;;;5042969;28;20385;-68
2022/04/21 13:12:16;;;;;;;7.07;2.92;;;16.90;49.50;;;;;;5033812;28;20048;-67
2022/04/21 13:14:41;;;;;;;6.40;3.20;;;17.00;49.60;;;;;;5037058;28;20064;-69
2022/04/21 13:17:07;;;;;;;6.30;4.65;;;17.00;49.10;;;;;;5033650;28;20092;-68
2022/04/21 13:19:33;;;;;;;4.65;2.88;;;17.00;49.70;;;;;;5033545;28;20041;-67
2022/04/21 13:22:00;;;;;;;5.65;2.90;;;17.00;49.40;;;;;;5033637;28;20049;-68
2022/04/21 13:24:26;;;;;;;4.70;2.65;;;16.90;49.40;;;;;;5034835;28;20053;-68
2022/04/21 13:26:52;;;;;;;7.22;3.00;;;16.90;48.50;;;;;;5041125;28;20047;-67
2022/04/21 13:29:19;;;;;;;6.18;3.28;;;16.90;49.10;;;;;;5037510;28;20583;-68
2022/04/21 13:34:29;;;;;;;3.85;2.60;;;17.00;48.80;;;;;;5033075;28;20073;-68
2022/04/21 13:36:55;;;;;;;4.07;2.88;;;17.10;48.10;;;;;;5035238;28;20555;-66
2022/04/21 13:39:20;;;;;;;6.00;2.78;;;17.10;48.10;;;;;;5028851;28;20106;-68
2022/04/21 13:41:48;;;;;;;4.93;3.25;;;17.00;47.90;;;;;;5034411;28;20045;-67
2022/04/21 13:44:15;;;;;;;7.97;3.30;;;17.00;47.20;;;;;;5030655;28;20543;-67
2022/04/21 13:46:41;;;;;;;6.07;2.80;;;16.90;47.50;;;;;;5033665;28;20095;-68
2022/04/21 13:49:07;;;;;;;9.57;3.92;;;16.80;48.20;;;;;;5030462;28;20053;-68